Hakodate, Japan
Current Conditions -  °F | °C
As of 2:00 PM on Saturday 20 Dec 2014 (Local Time) from RJCH Reporting Station
Broken Clouds Broken Clouds  
Wind Chill: 41°   Ceiling: 4500
Heat Index: 46°   Visibility: 6mi
Dew Point: 28°   Wind: 10mph
Humidity: 50%   Direction: 140°SE
Pressure: 29.85"   Gusts: NA
Location:  41.8°N, 140.74°E
Report Text: RJCH 200500Z 14009KT 9999 FEW030 BKN045 BKN080 08/M02 Q1011
Loading
Personal Weather Stations






























Interactive Weather Map New forecast layout! Learn more

10-Day Weather Forecast

Advertisements
Track Severe Weather on mobile